ホーチミン の空港の天気 - METARとTAF

タンソンニャット国際空港 (ホーチミン) ( VVTS / SGN ) - ベトナム ホーチミン市
飛行場実況気象(Metar)
観測時間04/25 21:30 ICT (04/25 14:30 UTC)
風向・風速南 4m/s
視程10km以上
天気現象
全天の4割程度の雲 雲底高度 520m
気温29℃
湿度84%
気圧1009hPa
METARVVTS 251430Z 17008KT 140V210 9999 SCT017 29/26 Q1009 NOSIG
過去の天気等 Google飛行場航空写真 Wunderground天気予報

過去48時間のMETAR

飛行場予報(TAF)
発表時間: 4/25 18:00 ICT (4/25 11:00 UTC)
予報対象時間: 25日19時 ICT ~ 27日1時 ICT
風向・風速南 4m/s
視程10km以上
全天の4割程度の雲 雲底高度 460m
全天の4割程度の雲 雲底高度 1,220m
26日14時 ICT ~ 26日19時 ICT に一時的に
天気現象
全天の8割程度の雲 雲底高度 460m
少しの積乱雲 雲底高度 520m
TAF VVTS 251100Z 2512/2618 17008KT 9999 SCT015 SCT040
TEMPO 2607/2612 TS BKN015 FEW017CB